sensor_id;sensor_type;location;lat;lon;timestamp;pressure;altitude;pressure_sealevel;temperature;humidity
12969;BME280;6549;53.128;8.182;2023-07-22T00:00:26;100962.94;;;12.53;100.00
12969;BME280;6549;53.128;8.182;2023-07-22T00:03:26;100969.25;;;12.54;100.00
12969;BME280;6549;53.128;8.182;2023-07-22T00:06:27;100967.66;;;12.49;100.00
12969;BME280;6549;53.128;8.182;2023-07-22T00:09:27;100969.63;;;12.45;100.00
12969;BME280;6549;53.128;8.182;2023-07-22T00:12:28;100968.47;;;12.43;100.00
12969;BME280;6549;53.128;8.182;2023-07-22T00:15:28;100973.97;;;12.36;100.00
12969;BME280;6549;53.128;8.182;2023-07-22T00:18:28;100970.41;;;12.32;100.00
12969;BME280;6549;53.128;8.182;2023-07-22T00:21:28;100971.19;;;12.29;100.00
12969;BME280;6549;53.128;8.182;2023-07-22T00:24:29;100967.66;;;12.25;100.00
12969;BME280;6549;53.128;8.182;2023-07-22T00:27:29;100967.25;;;12.23;100.00
12969;BME280;6549;53.128;8.182;2023-07-22T00:30:29;100965.28;;;12.20;100.00
12969;BME280;6549;53.128;8.182;2023-07-22T00:33:30;100962.91;;;12.22;100.00
12969;BME280;6549;53.128;8.182;2023-07-22T00:36:30;100965.28;;;12.20;100.00
12969;BME280;6549;53.128;8.182;2023-07-22T00:39:30;100956.59;;;12.18;100.00
12969;BME280;6549;53.128;8.182;2023-07-22T00:42:31;100966.47;;;12.19;100.00
12969;BME280;6549;53.128;8.182;2023-07-22T00:45:31;100958.19;;;12.19;100.00
12969;BME280;6549;53.128;8.182;2023-07-22T00:48:31;100966.06;;;12.17;100.00
12969;BME280;6549;53.128;8.182;2023-07-22T00:51:32;100962.13;;;12.18;100.00
12969;BME280;6549;53.128;8.182;2023-07-22T00:54:32;100967.63;;;12.18;100.00
12969;BME280;6549;53.128;8.182;2023-07-22T00:57:33;100965.28;;;12.16;100.00
12969;BME280;6549;53.128;8.182;2023-07-22T01:00:34;100963.31;;;12.17;100.00
12969;BME280;6549;53.128;8.182;2023-07-22T01:03:34;100964.88;;;12.14;100.00
12969;BME280;6549;53.128;8.182;2023-07-22T01:06:34;100955.03;;;12.09;100.00
12969;BME280;6549;53.128;8.182;2023-07-22T01:09:39;100966.84;;;12.06;100.00
12969;BME280;6549;53.128;8.182;2023-07-22T01:12:39;100951.84;;;12.04;100.00
12969;BME280;6549;53.128;8.182;2023-07-22T01:15:40;100957.38;;;12.00;100.00
12969;BME280;6549;53.128;8.182;2023-07-22T01:18:42;100951.47;;;11.98;100.00
12969;BME280;6549;53.128;8.182;2023-07-22T01:21:42;100957.34;;;11.97;100.00
12969;BME280;6549;53.128;8.182;2023-07-22T01:24:43;100961.69;;;11.94;100.00
12969;BME280;6549;53.128;8.182;2023-07-22T01:27:44;100957.75;;;11.92;100.00
12969;BME280;6549;53.128;8.182;2023-07-22T01:30:44;100959.31;;;11.89;100.00
12969;BME280;6549;53.128;8.182;2023-07-22T01:33:45;100955.34;;;11.87;100.00
12969;BME280;6549;53.128;8.182;2023-07-22T01:36:46;100945.53;;;11.86;100.00
12969;BME280;6549;53.128;8.182;2023-07-22T01:39:47;100952.22;;;11.81;100.00
12969;BME280;6549;53.128;8.182;2023-07-22T01:42:48;100951.00;;;11.79;100.00
12969;BME280;6549;53.128;8.182;2023-07-22T01:45:48;100949.03;;;11.76;100.00
12969;BME280;6549;53.128;8.182;2023-07-22T01:48:48;100957.31;;;11.72;100.00
12969;BME280;6549;53.128;8.182;2023-07-22T01:51:48;100956.47;;;11.68;100.00
12969;BME280;6549;53.128;8.182;2023-07-22T01:54:49;100952.13;;;11.63;100.00
12969;BME280;6549;53.128;8.182;2023-07-22T01:57:49;100958.38;;;11.60;100.00
12969;BME280;6549;53.128;8.182;2023-07-22T02:00:50;100956.78;;;11.56;100.00
12969;BME280;6549;53.128;8.182;2023-07-22T02:03:50;100948.53;;;11.52;100.00
12969;BME280;6549;53.128;8.182;2023-07-22T02:06:51;100946.16;;;11.47;100.00
12969;BME280;6549;53.128;8.182;2023-07-22T02:09:51;100942.22;;;11.45;100.00
12969;BME280;6549;53.128;8.182;2023-07-22T02:12:52;100945.75;;;11.42;100.00
12969;BME280;6549;53.128;8.182;2023-07-22T02:15:52;100951.25;;;11.42;100.00
12969;BME280;6549;53.128;8.182;2023-07-22T02:18:52;100957.13;;;11.37;100.00
12969;BME280;6549;53.128;8.182;2023-07-22T02:21:52;100957.88;;;11.34;100.00
12969;BME280;6549;53.128;8.182;2023-07-22T02:24:53;100961.41;;;11.31;100.00
12969;BME280;6549;53.128;8.182;2023-07-22T02:27:53;100960.59;;;11.26;100.00
12969;BME280;6549;53.128;8.182;2023-07-22T02:30:53;100962.94;;;11.24;100.00
12969;BME280;6549;53.128;8.182;2023-07-22T02:33:54;100958.63;;;11.23;100.00
12969;BME280;6549;53.128;8.182;2023-07-22T02:36:54;100961.75;;;11.22;100.00
12969;BME280;6549;53.128;8.182;2023-07-22T02:39:54;100961.72;;;11.18;100.00
12969;BME280;6549;53.128;8.182;2023-07-22T02:42:55;100969.56;;;11.16;100.00
12969;BME280;6549;53.128;8.182;2023-07-22T02:45:55;100980.56;;;11.13;100.00
12969;BME280;6549;53.128;8.182;2023-07-22T02:48:56;100982.13;;;11.10;100.00
12969;BME280;6549;53.128;8.182;2023-07-22T02:51:56;100976.19;;;11.08;100.00
12969;BME280;6549;53.128;8.182;2023-07-22T02:55:11;100983.28;;;11.09;100.00
12969;BME280;6549;53.128;8.182;2023-07-22T02:58:12;100977.34;;;11.04;100.00
12969;BME280;6549;53.128;8.182;2023-07-22T03:01:12;100984.00;;;11.03;100.00
12969;BME280;6549;53.128;8.182;2023-07-22T03:04:13;100994.63;;;11.01;100.00
12969;BME280;6549;53.128;8.182;2023-07-22T03:07:14;100988.34;;;11.00;100.00
12969;BME280;6549;53.128;8.182;2023-07-22T03:10:14;100986.72;;;10.96;100.00
12969;BME280;6549;53.128;8.182;2023-07-22T03:13:15;100998.13;;;10.98;100.00
12969;BME280;6549;53.128;8.182;2023-07-22T03:16:16;100997.34;;;10.97;100.00
12969;BME280;6549;53.128;8.182;2023-07-22T03:19:16;100994.97;;;10.92;100.00
12969;BME280;6549;53.128;8.182;2023-07-22T03:22:17;101001.63;;;10.91;100.00
12969;BME280;6549;53.128;8.182;2023-07-22T03:25:19;101003.56;;;10.87;100.00
12969;BME280;6549;53.128;8.182;2023-07-22T03:28:20;101005.09;;;10.85;100.00
12969;BME280;6549;53.128;8.182;2023-07-22T03:31:20;101008.25;;;10.83;100.00
12969;BME280;6549;53.128;8.182;2023-07-22T03:34:21;101003.91;;;10.82;100.00
12969;BME280;6549;53.128;8.182;2023-07-22T03:37:21;101009.78;;;10.80;100.00
12969;BME280;6549;53.128;8.182;2023-07-22T03:40:21;101008.22;;;10.79;100.00
12969;BME280;6549;53.128;8.182;2023-07-22T03:43:26;101014.47;;;10.80;100.00
12969;BME280;6549;53.128;8.182;2023-07-22T03:46:27;101007.03;;;10.80;100.00
12969;BME280;6549;53.128;8.182;2023-07-22T03:49:27;101010.56;;;10.81;100.00
12969;BME280;6549;53.128;8.182;2023-07-22T03:52:27;101012.53;;;10.80;100.00
12969;BME280;6549;53.128;8.182;2023-07-22T03:55:28;101003.09;;;10.81;100.00
12969;BME280;6549;53.128;8.182;2023-07-22T03:58:28;101006.22;;;10.80;100.00
12969;BME280;6549;53.128;8.182;2023-07-22T04:01:28;101005.84;;;10.81;100.00
12969;BME280;6549;53.128;8.182;2023-07-22T04:04:29;101007.81;;;10.81;100.00
12969;BME280;6549;53.128;8.182;2023-07-22T04:07:29;101009.81;;;10.84;100.00
12969;BME280;6549;53.128;8.182;2023-07-22T04:10:29;101019.25;;;10.87;100.00
12969;BME280;6549;53.128;8.182;2023-07-22T04:13:30;101012.19;;;10.89;100.00
12969;BME280;6549;53.128;8.182;2023-07-22T04:16:30;101025.22;;;10.96;100.00
12969;BME280;6549;53.128;8.182;2023-07-22T04:19:31;101027.63;;;11.01;100.00
12969;BME280;6549;53.128;8.182;2023-07-22T04:22:31;101022.16;;;11.08;100.00
12969;BME280;6549;53.128;8.182;2023-07-22T04:25:32;101032.03;;;11.16;100.00
12969;BME280;6549;53.128;8.182;2023-07-22T04:28:34;101032.09;;;11.23;100.00
12969;BME280;6549;53.128;8.182;2023-07-22T04:31:35;101030.59;;;11.33;100.00
12969;BME280;6549;53.128;8.182;2023-07-22T04:34:35;101027.88;;;11.40;100.00
12969;BME280;6549;53.128;8.182;2023-07-22T04:37:35;101033.47;;;11.50;100.00
12969;BME280;6549;53.128;8.182;2023-07-22T04:40:35;101034.66;;;11.60;100.00
12969;BME280;6549;53.128;8.182;2023-07-22T04:43:36;101034.31;;;11.68;100.00
12969;BME280;6549;53.128;8.182;2023-07-22T04:46:36;101033.22;;;11.80;100.00
12969;BME280;6549;53.128;8.182;2023-07-22T04:49:36;101034.84;;;11.88;100.00
12969;BME280;6549;53.128;8.182;2023-07-22T04:52:37;101036.44;;;11.93;100.00
12969;BME280;6549;53.128;8.182;2023-07-22T04:55:37;101032.94;;;12.03;100.00
12969;BME280;6549;53.128;8.182;2023-07-22T04:58:37;101038.47;;;12.17;100.00
12969;BME280;6549;53.128;8.182;2023-07-22T05:01:38;101039.72;;;12.30;100.00
12969;BME280;6549;53.128;8.182;2023-07-22T05:04:39;101038.91;;;12.40;100.00
12969;BME280;6549;53.128;8.182;2023-07-22T05:07:39;101039.75;;;12.51;100.00
12969;BME280;6549;53.128;8.182;2023-07-22T05:10:39;101036.59;;;12.64;100.00
12969;BME280;6549;53.128;8.182;2023-07-22T05:13:40;101038.56;;;12.70;100.00
12969;BME280;6549;53.128;8.182;2023-07-22T05:16:40;101033.84;;;12.81;100.00
12969;BME280;6549;53.128;8.182;2023-07-22T05:19:41;101031.88;;;12.89;100.00
12969;BME280;6549;53.128;8.182;2023-07-22T05:22:41;101030.69;;;13.07;100.00
12969;BME280;6549;53.128;8.182;2023-07-22T05:25:42;101030.31;;;13.23;100.00
12969;BME280;6549;53.128;8.182;2023-07-22T05:28:42;101027.53;;;13.34;100.00
12969;BME280;6549;53.128;8.182;2023-07-22T05:31:42;101023.16;;;13.50;100.00
12969;BME280;6549;53.128;8.182;2023-07-22T05:34:43;101022.72;;;13.66;100.00
12969;BME280;6549;53.128;8.182;2023-07-22T05:37:43;101022.63;;;13.87;100.00
12969;BME280;6549;53.128;8.182;2023-07-22T05:40:43;101030.41;;;14.14;100.00
12969;BME280;6549;53.128;8.182;2023-07-22T05:43:43;101035.09;;;14.24;100.00
12969;BME280;6549;53.128;8.182;2023-07-22T05:46:44;101036.22;;;14.37;100.00
12969;BME280;6549;53.128;8.182;2023-07-22T05:49:44;101048.06;;;14.41;100.00
12969;BME280;6549;53.128;8.182;2023-07-22T05:52:44;101043.56;;;14.61;100.00
12969;BME280;6549;53.128;8.182;2023-07-22T05:55:46;101043.91;;;14.70;100.00
12969;BME280;6549;53.128;8.182;2023-07-22T05:58:46;101043.78;;;14.84;100.00
12969;BME280;6549;53.128;8.182;2023-07-22T06:01:46;101038.59;;;14.94;100.00
12969;BME280;6549;53.128;8.182;2023-07-22T06:04:46;101046.06;;;14.97;100.00
12969;BME280;6549;53.128;8.182;2023-07-22T06:07:47;101051.28;;;14.88;100.00
12969;BME280;6549;53.128;8.182;2023-07-22T06:10:47;101055.25;;;14.83;100.00
12969;BME280;6549;53.128;8.182;2023-07-22T06:13:47;101044.88;;;14.98;100.00
12969;BME280;6549;53.128;8.182;2023-07-22T06:16:48;101049.69;;;14.90;100.00
12969;BME280;6549;53.128;8.182;2023-07-22T06:19:48;101048.81;;;14.97;100.00
12969;BME280;6549;53.128;8.182;2023-07-22T06:22:48;101051.03;;;15.16;100.00
12969;BME280;6549;53.128;8.182;2023-07-22T06:25:49;101043.69;;;15.40;100.00
12969;BME280;6549;53.128;8.182;2023-07-22T06:28:49;101046.31;;;15.57;100.00
12969;BME280;6549;53.128;8.182;2023-07-22T06:31:49;101046.41;;;15.84;100.00
12969;BME280;6549;53.128;8.182;2023-07-22T06:34:50;101047.22;;;16.15;100.00
12969;BME280;6549;53.128;8.182;2023-07-22T06:37:50;101052.88;;;16.35;100.00
12969;BME280;6549;53.128;8.182;2023-07-22T06:40:52;101050.72;;;16.19;100.00
12969;BME280;6549;53.128;8.182;2023-07-22T06:43:53;101047.50;;;16.21;100.00
12969;BME280;6549;53.128;8.182;2023-07-22T06:46:53;101056.22;;;16.23;100.00
12969;BME280;6549;53.128;8.182;2023-07-22T06:49:54;101051.53;;;16.16;100.00
12969;BME280;6549;53.128;8.182;2023-07-22T06:52:54;101050.91;;;16.05;100.00
12969;BME280;6549;53.128;8.182;2023-07-22T06:55:54;101044.59;;;16.01;100.00
12969;BME280;6549;53.128;8.182;2023-07-22T06:58:55;101050.78;;;16.12;100.00
12969;BME280;6549;53.128;8.182;2023-07-22T07:01:55;101045.72;;;16.37;100.00
12969;BME280;6549;53.128;8.182;2023-07-22T07:04:56;101048.47;;;16.68;100.00
12969;BME280;6549;53.128;8.182;2023-07-22T07:07:56;101040.38;;;16.77;100.00
12969;BME280;6549;53.128;8.182;2023-07-22T07:10:59;101043.56;;;16.75;100.00
12969;BME280;6549;53.128;8.182;2023-07-22T07:13:59;101041.47;;;16.83;100.00
12969;BME280;6549;53.128;8.182;2023-07-22T07:17:00;101043.50;;;16.79;100.00
12969;BME280;6549;53.128;8.182;2023-07-22T07:20:01;101047.88;;;16.80;100.00
12969;BME280;6549;53.128;8.182;2023-07-22T07:23:01;101043.56;;;17.22;100.00
12969;BME280;6549;53.128;8.182;2023-07-22T07:26:01;101044.66;;;17.51;100.00
12969;BME280;6549;53.128;8.182;2023-07-22T07:29:02;101045.69;;;17.80;100.00
12969;BME280;6549;53.128;8.182;2023-07-22T07:32:02;101053.38;;;17.92;100.00
12969;BME280;6549;53.128;8.182;2023-07-22T07:35:03;101053.97;;;18.39;100.00
12969;BME280;6549;53.128;8.182;2023-07-22T07:38:04;101062.22;;;18.95;100.00
12969;BME280;6549;53.128;8.182;2023-07-22T07:41:06;101060.81;;;19.03;100.00
12969;BME280;6549;53.128;8.182;2023-07-22T07:44:11;101059.00;;;18.97;100.00
12969;BME280;6549;53.128;8.182;2023-07-22T07:47:11;101066.25;;;19.39;100.00
12969;BME280;6549;53.128;8.182;2023-07-22T07:50:12;101055.28;;;19.64;100.00
12969;BME280;6549;53.128;8.182;2023-07-22T07:53:12;101061.47;;;19.40;100.00
12969;BME280;6549;53.128;8.182;2023-07-22T07:56:13;101064.31;;;19.07;100.00
12969;BME280;6549;53.128;8.182;2023-07-22T07:59:13;101069.25;;;19.00;100.00
12969;BME280;6549;53.128;8.182;2023-07-22T08:02:14;101073.69;;;18.65;100.00
12969;BME280;6549;53.128;8.182;2023-07-22T08:05:15;101065.59;;;18.34;100.00
12969;BME280;6549;53.128;8.182;2023-07-22T08:08:16;101066.34;;;18.19;100.00
12969;BME280;6549;53.128;8.182;2023-07-22T08:11:16;101057.94;;;18.03;100.00
12969;BME280;6549;53.128;8.182;2023-07-22T08:14:17;101065.72;;;17.91;100.00
12969;BME280;6549;53.128;8.182;2023-07-22T08:17:18;101061.00;;;17.88;100.00
12969;BME280;6549;53.128;8.182;2023-07-22T08:20:18;101067.94;;;18.00;100.00
12969;BME280;6549;53.128;8.182;2023-07-22T08:23:19;101066.06;;;17.93;100.00
12969;BME280;6549;53.128;8.182;2023-07-22T08:26:20;101059.09;;;17.85;100.00
12969;BME280;6549;53.128;8.182;2023-07-22T08:29:21;101067.13;;;18.00;100.00
12969;BME280;6549;53.128;8.182;2023-07-22T08:32:22;101068.47;;;18.31;100.00
12969;BME280;6549;53.128;8.182;2023-07-22T08:35:22;101063.22;;;18.53;100.00
12969;BME280;6549;53.128;8.182;2023-07-22T08:38:23;101069.97;;;18.88;100.00
12969;BME280;6549;53.128;8.182;2023-07-22T08:41:24;101068.91;;;18.81;100.00
12969;BME280;6549;53.128;8.182;2023-07-22T08:44:29;101063.16;;;18.72;100.00
12969;BME280;6549;53.128;8.182;2023-07-22T08:47:34;101059.06;;;18.61;100.00
12969;BME280;6549;53.128;8.182;2023-07-22T08:53:45;101063.00;;;18.79;100.00
12969;BME280;6549;53.128;8.182;2023-07-22T08:56:46;101060.28;;;19.08;100.00
12969;BME280;6549;53.128;8.182;2023-07-22T08:59:47;101067.41;;;19.25;100.00
12969;BME280;6549;53.128;8.182;2023-07-22T09:02:47;101050.94;;;19.31;100.00
12969;BME280;6549;53.128;8.182;2023-07-22T09:05:48;101059.84;;;19.26;100.00
12969;BME280;6549;53.128;8.182;2023-07-22T09:08:49;101059.84;;;19.26;100.00
12969;BME280;6549;53.128;8.182;2023-07-22T09:11:51;101057.69;;;19.01;100.00
12969;BME280;6549;53.128;8.182;2023-07-22T09:14:52;101052.66;;;18.96;100.00
12969;BME280;6549;53.128;8.182;2023-07-22T09:17:53;101050.69;;;19.25;100.00
12969;BME280;6549;53.128;8.182;2023-07-22T09:20:53;101054.50;;;19.64;100.00
12969;BME280;6549;53.128;8.182;2023-07-22T09:23:54;101049.13;;;19.98;100.00
12969;BME280;6549;53.128;8.182;2023-07-22T09:27:07;101047.97;;;20.37;100.00
12969;BME280;6549;53.128;8.182;2023-07-22T09:30:29;101047.06;;;20.40;100.00
12969;BME280;6549;53.128;8.182;2023-07-22T09:33:35;101057.72;;;19.91;100.00
12969;BME280;6549;53.128;8.182;2023-07-22T09:36:52;101045.13;;;20.12;100.00
12969;BME280;6549;53.128;8.182;2023-07-22T09:39:52;101046.25;;;20.27;100.00
12969;BME280;6549;53.128;8.182;2023-07-22T09:42:54;101047.44;;;20.30;100.00
12969;BME280;6549;53.128;8.182;2023-07-22T09:45:55;101044.09;;;20.47;100.00
12969;BME280;6549;53.128;8.182;2023-07-22T09:48:55;101048.75;;;20.63;100.00
12969;BME280;6549;53.128;8.182;2023-07-22T09:51:55;101048.13;;;20.05;100.00
12969;BME280;6549;53.128;8.182;2023-07-22T09:54:58;101045.47;;;20.14;100.00
12969;BME280;6549;53.128;8.182;2023-07-22T09:58:04;101036.63;;;20.03;100.00
12969;BME280;6549;53.128;8.182;2023-07-22T10:01:12;101045.13;;;19.99;100.00
12969;BME280;6549;53.128;8.182;2023-07-22T10:04:15;101038.63;;;20.02;100.00
12969;BME280;6549;53.128;8.182;2023-07-22T10:07:16;101034.78;;;19.84;100.00
12969;BME280;6549;53.128;8.182;2023-07-22T10:10:18;101026.59;;;20.05;100.00
12969;BME280;6549;53.128;8.182;2023-07-22T10:13:19;101027.25;;;20.09;100.00
12969;BME280;6549;53.128;8.182;2023-07-22T10:16:20;101020.00;;;19.99;100.00
12969;BME280;6549;53.128;8.182;2023-07-22T10:19:22;101029.38;;;20.05;100.00
12969;BME280;6549;53.128;8.182;2023-07-22T10:22:23;101036.00;;;20.24;100.00
12969;BME280;6549;53.128;8.182;2023-07-22T10:25:24;101032.66;;;20.29;100.00
12969;BME280;6549;53.128;8.182;2023-07-22T10:28:25;101019.25;;;20.11;100.00
12969;BME280;6549;53.128;8.182;2023-07-22T10:31:30;101027.31;;;20.22;100.00
12969;BME280;6549;53.128;8.182;2023-07-22T10:34:31;101027.19;;;20.26;100.00
12969;BME280;6549;53.128;8.182;2023-07-22T10:37:32;101016.34;;;20.28;100.00
12969;BME280;6549;53.128;8.182;2023-07-22T10:40:50;101018.03;;;20.25;100.00
12969;BME280;6549;53.128;8.182;2023-07-22T10:43:56;101011.38;;;20.35;100.00
12969;BME280;6549;53.128;8.182;2023-07-22T10:46:57;101015.28;;;20.38;100.00
12969;BME280;6549;53.128;8.182;2023-07-22T10:50:05;101017.78;;;20.19;100.00
12969;BME280;6549;53.128;8.182;2023-07-22T10:53:10;101023.59;;;20.12;100.00
12969;BME280;6549;53.128;8.182;2023-07-22T10:59:12;101022.16;;;20.08;100.00
12969;BME280;6549;53.128;8.182;2023-07-22T11:02:23;101018.69;;;20.04;100.00
12969;BME280;6549;53.128;8.182;2023-07-22T11:05:47;101022.56;;;19.94;100.00
12969;BME280;6549;53.128;8.182;2023-07-22T11:08:49;101015.38;;;19.80;100.00
12969;BME280;6549;53.128;8.182;2023-07-22T11:11:49;101017.53;;;19.89;100.00
12969;BME280;6549;53.128;8.182;2023-07-22T11:14:51;101016.28;;;19.77;100.00
12969;BME280;6549;53.128;8.182;2023-07-22T11:17:51;101011.50;;;19.49;100.00
12969;BME280;6549;53.128;8.182;2023-07-22T11:20:55;101010.88;;;19.41;100.00
12969;BME280;6549;53.128;8.182;2023-07-22T11:23:55;101013.78;;;19.21;100.00
12969;BME280;6549;53.128;8.182;2023-07-22T11:26:55;101014.19;;;19.07;100.00
12969;BME280;6549;53.128;8.182;2023-07-22T11:29:59;101012.44;;;18.81;100.00
12969;BME280;6549;53.128;8.182;2023-07-22T11:32:59;101010.97;;;18.60;100.00
12969;BME280;6549;53.128;8.182;2023-07-22T11:35:59;101003.38;;;18.45;100.00
12969;BME280;6549;53.128;8.182;2023-07-22T11:39:11;101017.50;;;18.34;100.00
12969;BME280;6549;53.128;8.182;2023-07-22T11:42:13;101016.03;;;18.29;100.00
12969;BME280;6549;53.128;8.182;2023-07-22T11:45:13;101015.03;;;18.20;100.00
12969;BME280;6549;53.128;8.182;2023-07-22T11:48:15;101029.03;;;18.16;100.00
12969;BME280;6549;53.128;8.182;2023-07-22T11:51:20;101038.91;;;18.01;100.00
12969;BME280;6549;53.128;8.182;2023-07-22T11:54:21;101038.41;;;17.86;100.00
12969;BME280;6549;53.128;8.182;2023-07-22T11:57:23;101047.03;;;17.72;100.00
12969;BME280;6549;53.128;8.182;2023-07-22T12:00:24;101049.44;;;17.70;100.00
12969;BME280;6549;53.128;8.182;2023-07-22T12:03:24;101041.00;;;17.54;100.00
12969;BME280;6549;53.128;8.182;2023-07-22T12:06:26;101033.00;;;17.36;100.00
12969;BME280;6549;53.128;8.182;2023-07-22T12:09:26;101035.53;;;17.27;100.00
12969;BME280;6549;53.128;8.182;2023-07-22T12:12:41;101040.88;;;17.18;100.00
12969;BME280;6549;53.128;8.182;2023-07-22T12:16:02;101039.81;;;17.12;100.00
12969;BME280;6549;53.128;8.182;2023-07-22T12:19:03;101032.38;;;17.05;100.00
12969;BME280;6549;53.128;8.182;2023-07-22T12:22:04;101025.53;;;17.10;100.00
12969;BME280;6549;53.128;8.182;2023-07-22T12:25:05;101022.41;;;17.08;100.00
12969;BME280;6549;53.128;8.182;2023-07-22T12:28:06;101027.53;;;17.10;100.00
12969;BME280;6549;53.128;8.182;2023-07-22T12:31:07;101025.13;;;17.12;100.00
12969;BME280;6549;53.128;8.182;2023-07-22T12:34:09;101022.34;;;17.12;100.00
12969;BME280;6549;53.128;8.182;2023-07-22T12:37:09;101023.84;;;17.16;100.00
12969;BME280;6549;53.128;8.182;2023-07-22T12:40:10;101026.16;;;17.21;100.00
12969;BME280;6549;53.128;8.182;2023-07-22T12:43:13;101022.84;;;17.26;100.00
12969;BME280;6549;53.128;8.182;2023-07-22T12:46:13;101017.91;;;17.37;100.00
12969;BME280;6549;53.128;8.182;2023-07-22T12:49:14;101025.97;;;17.51;100.00
12969;BME280;6549;53.128;8.182;2023-07-22T12:52:14;101015.66;;;17.72;100.00
12969;BME280;6549;53.128;8.182;2023-07-22T12:55:14;101016.25;;;17.83;100.00
12969;BME280;6549;53.128;8.182;2023-07-22T12:58:15;101009.84;;;17.86;100.00
12969;BME280;6549;53.128;8.182;2023-07-22T13:01:16;101014.81;;;17.75;100.00
12969;BME280;6549;53.128;8.182;2023-07-22T13:04:16;101018.53;;;17.68;100.00
12969;BME280;6549;53.128;8.182;2023-07-22T13:07:16;101001.22;;;17.61;100.00
12969;BME280;6549;53.128;8.182;2023-07-22T13:10:20;101009.31;;;17.51;100.00
12969;BME280;6549;53.128;8.182;2023-07-22T13:13:22;101003.66;;;17.35;100.00
12969;BME280;6549;53.128;8.182;2023-07-22T13:16:22;101001.91;;;17.22;100.00
12969;BME280;6549;53.128;8.182;2023-07-22T13:19:22;101002.97;;;17.08;100.00
12969;BME280;6549;53.128;8.182;2023-07-22T13:22:23;100997.19;;;16.99;100.00
12969;BME280;6549;53.128;8.182;2023-07-22T13:25:23;100984.13;;;16.96;100.00
12969;BME280;6549;53.128;8.182;2023-07-22T13:28:24;100981.97;;;17.07;100.00
12969;BME280;6549;53.128;8.182;2023-07-22T13:31:24;100991.75;;;17.15;100.00
12969;BME280;6549;53.128;8.182;2023-07-22T13:34:24;101007.25;;;17.13;100.00
12969;BME280;6549;53.128;8.182;2023-07-22T13:37:25;101006.47;;;17.12;100.00
12969;BME280;6549;53.128;8.182;2023-07-22T13:40:26;101004.13;;;17.11;100.00
12969;BME280;6549;53.128;8.182;2023-07-22T13:43:26;101025.19;;;17.08;100.00
12969;BME280;6549;53.128;8.182;2023-07-22T13:46:28;101024.16;;;16.98;100.00
12969;BME280;6549;53.128;8.182;2023-07-22T13:49:28;101021.31;;;16.79;100.00
12969;BME280;6549;53.128;8.182;2023-07-22T13:52:29;101012.06;;;16.62;100.00
12969;BME280;6549;53.128;8.182;2023-07-22T13:55:29;101001.81;;;16.55;100.00
12969;BME280;6549;53.128;8.182;2023-07-22T13:58:29;101011.34;;;16.58;100.00
12969;BME280;6549;53.128;8.182;2023-07-22T14:01:30;101007.78;;;16.57;100.00
12969;BME280;6549;53.128;8.182;2023-07-22T14:04:31;101008.88;;;16.64;100.00
12969;BME280;6549;53.128;8.182;2023-07-22T14:07:31;100993.75;;;16.68;100.00
12969;BME280;6549;53.128;8.182;2023-07-22T14:10:31;100996.47;;;16.72;100.00
12969;BME280;6549;53.128;8.182;2023-07-22T14:13:32;100997.19;;;16.76;100.00
12969;BME280;6549;53.128;8.182;2023-07-22T14:16:32;101001.88;;;16.79;100.00
12969;BME280;6549;53.128;8.182;2023-07-22T14:19:33;101003.81;;;16.82;100.00
12969;BME280;6549;53.128;8.182;2023-07-22T14:22:34;101005.84;;;16.78;100.00
12969;BME280;6549;53.128;8.182;2023-07-22T14:25:34;101007.03;;;16.80;100.00
12969;BME280;6549;53.128;8.182;2023-07-22T14:28:34;101004.31;;;16.77;100.00
12969;BME280;6549;53.128;8.182;2023-07-22T14:31:34;101002.19;;;16.84;100.00
12969;BME280;6549;53.128;8.182;2023-07-22T14:34:35;101001.81;;;16.82;100.00
12969;BME280;6549;53.128;8.182;2023-07-22T14:37:36;100999.56;;;16.77;100.00
12969;BME280;6549;53.128;8.182;2023-07-22T14:40:37;100995.63;;;16.75;100.00
12969;BME280;6549;53.128;8.182;2023-07-22T14:43:37;101000.19;;;16.61;100.00
12969;BME280;6549;53.128;8.182;2023-07-22T14:46:37;101001.81;;;16.59;100.00
12969;BME280;6549;53.128;8.182;2023-07-22T14:49:38;100995.06;;;16.56;100.00
12969;BME280;6549;53.128;8.182;2023-07-22T14:52:38;100995.63;;;16.48;100.00
12969;BME280;6549;53.128;8.182;2023-07-22T14:55:39;100995.00;;;16.37;100.00
12969;BME280;6549;53.128;8.182;2023-07-22T14:58:39;100998.38;;;16.21;100.00
12969;BME280;6549;53.128;8.182;2023-07-22T15:01:41;100997.44;;;16.04;100.00
12969;BME280;6549;53.128;8.182;2023-07-22T15:04:41;101001.06;;;16.01;100.00
12969;BME280;6549;53.128;8.182;2023-07-22T15:07:41;100996.38;;;15.95;100.00
12969;BME280;6549;53.128;8.182;2023-07-22T15:10:42;100986.91;;;15.92;100.00
12969;BME280;6549;53.128;8.182;2023-07-22T15:13:42;100975.50;;;15.87;100.00
12969;BME280;6549;53.128;8.182;2023-07-22T15:16:42;100984.28;;;15.82;100.00
12969;BME280;6549;53.128;8.182;2023-07-22T15:19:43;100976.53;;;15.69;100.00
12969;BME280;6549;53.128;8.182;2023-07-22T15:22:43;100973.06;;;15.62;100.00
12969;BME280;6549;53.128;8.182;2023-07-22T15:25:43;100964.69;;;15.65;100.00
12969;BME280;6549;53.128;8.182;2023-07-22T15:28:44;100963.97;;;15.61;100.00
12969;BME280;6549;53.128;8.182;2023-07-22T15:31:45;100958.78;;;15.63;100.00
12969;BME280;6549;53.128;8.182;2023-07-22T15:34:45;100941.69;;;15.68;100.00
12969;BME280;6549;53.128;8.182;2023-07-22T15:37:45;100945.19;;;15.72;100.00
12969;BME280;6549;53.128;8.182;2023-07-22T15:40:46;100940.00;;;15.78;100.00
12969;BME280;6549;53.128;8.182;2023-07-22T15:43:46;100935.13;;;15.86;100.00
12969;BME280;6549;53.128;8.182;2023-07-22T15:46:46;100934.72;;;15.87;100.00
12969;BME280;6549;53.128;8.182;2023-07-22T15:49:47;100938.16;;;15.95;100.00
12969;BME280;6549;53.128;8.182;2023-07-22T15:52:47;100937.72;;;16.00;100.00